Airfield :
LOGIN :

Register | Disclaimer

   EN    FR    IT 

 










Legend :    VFR   Marginal VFR   IFR   Intensive IFR   Very Intensive IFR
Visi :
Ceiling :
>= 8 km
>= 3000ft
5 to 8 km
1000 to 3000 ft
1500m to 5 km
500 to 1000 ft
800 to 1500m
200 to 500 ft
< 800m
< 200 ft
Symbols :   Thunderstorms  Fog  Heavy snow  Heavy precipitations  Wind > 20 kt
SIGMETs :     Misc.  Thunderstorms  Icing  Turbulence  Mountain Waves  Volcanic Ashes






- Airport Elevation : 3125 ft
- IATA code : ESB


LTAC - Ankara Esenboga

CURRENT METAR :
  • 200050Z 27004KT 150V290 9999 SCT025 SCT100 M08/M11 Q1022 NOSIG RMK RWY21L 24004KT RWY03L 26003KT RWY21R 24004KT

EXPIRED METARs :
  • 200020Z VRB01KT 9999 SCT025 SCT100 M07/M10 Q1022 NOSIG RMK RWY21L 20004KT 170V230 RWY03L VRB01KT RWY21R VRB02KT
  • 192350Z 20005KT 160V240 9999 SCT025 SCT100 M07/M10 Q1022 NOSIG RMK RWY21L 17004KT 150V210 RWY03L 19004KT 160V230 RWY21R 20004KT 170V260
  • 192320Z 22004KT 190V250 9999 SCT040 SCT100 M07/M10 Q1022 NOSIG RMK RWY21L 16006KT RWY03L 20005KT RWY21R 19005KT 170V280
  • 192250Z 23004KT 9999 FEW040 SCT100 M08/M11 Q1022 NOSIG RMK RWY21L 24006KT RWY03L 21003KT 180V240 RWY21R 24005KT
  • 192220Z 21006KT 9999 SCT025 M08/M11 Q1022 NOSIG RMK RWY21L 23005KT RWY03L 19005KT RWY21R 23005KT

TAF TAF LTAC
Valid from the 20 at 00:00 until the 21 at 00:00 UTC


192240Z 2000/2024 VRB02KT 9999 SCT040 SCT080
BECMG 2010/2013 CAVOK



MET'MAP, your aeronautical weather chart ! - Copyright ORBIFLY December 2007 - Disclaimer

ORBIFLY MET'MAP TEAM :

Programming & Development : Alexandra Zaïnal
Concept & original design : Baudouin d'Aumeries
Assistance for programming : Marc-Olivier Méhu
Technical & hardware support : Manuel Goepfert

Contact : metmap@orbifly.com




SOURCES & CREDITS :

   NOAA